Alamota, Kansas
Current Conditions -  °F | °C
As of 4:31 AM on Thursday 23 Oct 2014 (Local Time) from KGCK Reporting Station
Haze Haze  
Wind Chill: 56°   Ceiling: Unl
Heat Index: 56°   Visibility: 1.7mi
Dew Point: 55°   Wind: 6mph
Humidity: 97%   Direction: 170°S
Pressure: 30.05"   Gusts: NA
Location:  38.4812°N, 100.393°W
Report Text: KGCK 230931Z AUTO 17005KT 1 3/4SM BR SCT008 13/13 A3005 RMK AO2 T01330128
Loading
Personal Weather Stations






























Interactive Weather Map
Tropical Storm Tracking
New forecast layout! Learn more

10-Day Weather Forecast

Advertisements
Track Severe Weather on mobile